Terminal Aerodrome Forecast
Issued by NWS Honolulu, HI

Home | Current Version | Previous Version | Text Only | Print | Product List | Glossary On
Versions: 1 2 3 4 5 6 7 8 9 10 11 12 13 14 15 16 17 18 19 20 21 22 23 24 25 26 27 28 29 30 31 32 33 34 35 36 37 38 39 40 41 42 43 44 45 46 47 48 49 50
000
FTPA31 PHFO 082329
TAFHNL
TAF
PHNL 082329Z 0900/1006 17007KT 6SM -SHRA SCT015 BKN035 OVC050
      TEMPO 0900/0902 4SM SHRA BR SCT015 OVC025
     FM090400 17007KT P6SM -SHRA SCT015 BKN035 OVC050
     FM091200 VRB04KT P6SM VCSH SCT025 BKN050
     FM092000 17007KT P6SM SCT025 BKN050=

USA.gov is the U.S. government's official web portal to all federal, state and local government web resources and services.